Time,TemperatureF,DewpointF,PressureIn,WindDirection,WindDirectionDegrees,WindSpeedMPH,WindSpeedGustMPH,Humidity,HourlyPrecipIn,Conditions,Clouds,dailyrainin,SolarRadiationWatts/m^2,SoftwareType,DateUTC
2013-05-18 00:03:00,56.0,40.0,-100.00,ENE,77,2.0,4.0,54,0.00,,,0.00,0.000000,,2013-05-18 04:03:00,
2013-05-18 00:33:00,54.0,38.0,-100.00,East,93,2.0,3.0,54,0.00,,,0.00,0.000000,,2013-05-18 04:33:00,
2013-05-18 00:43:00,54.0,38.0,-100.00,East,93,2.0,3.0,54,0.00,,,0.00,0.000000,,2013-05-18 04:43:00,
2013-05-18 00:53:00,54.0,38.0,-100.00,East,93,2.0,3.0,54,0.00,,,0.00,0.000000,,2013-05-18 04:53:00,
2013-05-18 01:02:00,54.0,38.0,-100.00,East,93,2.0,3.0,54,0.00,,,0.00,0.000000,,2013-05-18 05:02:00,
2013-05-18 01:32:00,54.0,39.0,-100.00,SSE,154,1.0,4.0,57,0.00,,,0.00,0.000000,,2013-05-18 05:32:00,
2013-05-18 01:42:00,54.0,39.0,-100.00,SSE,154,1.0,4.0,57,0.00,,,0.00,0.000000,,2013-05-18 05:42:00,
2013-05-18 01:52:00,54.0,39.0,-100.00,SSE,154,1.0,4.0,57,0.00,,,0.00,0.000000,,2013-05-18 05:52:00,
2013-05-18 02:02:00,54.0,39.0,-100.00,SSE,154,1.0,4.0,57,0.00,,,0.00,0.000000,,2013-05-18 06:02:00,
2013-05-18 02:32:00,53.0,39.0,-100.00,East,83,1.0,3.0,58,0.00,,,0.00,0.000000,,2013-05-18 06:32:00,
2013-05-18 02:42:00,53.0,39.0,-100.00,East,83,1.0,3.0,58,0.00,,,0.00,0.000000,,2013-05-18 06:42:00,
2013-05-18 02:52:00,53.0,39.0,-100.00,East,83,1.0,3.0,58,0.00,,,0.00,0.000000,,2013-05-18 06:52:00,
2013-05-18 03:01:00,53.0,39.0,-100.00,East,83,1.0,3.0,58,0.00,,,0.00,0.000000,,2013-05-18 07:01:00,
2013-05-18 03:32:00,54.0,40.0,-100.00,ESE,122,2.0,4.0,58,0.00,,,0.00,0.000000,,2013-05-18 07:32:00,
2013-05-18 03:43:00,54.0,40.0,-100.00,ESE,122,2.0,4.0,58,0.00,,,0.00,0.000000,,2013-05-18 07:43:00,
2013-05-18 03:53:00,54.0,40.0,-100.00,ESE,122,2.0,4.0,58,0.00,,,0.00,0.000000,,2013-05-18 07:53:00,
2013-05-18 04:01:00,54.0,40.0,-100.00,ESE,122,2.0,4.0,58,0.00,,,0.00,0.000000,,2013-05-18 08:01:00,
2013-05-18 04:33:00,54.0,39.0,-100.00,ESE,117,3.0,5.0,56,0.00,,,0.00,0.000000,,2013-05-18 08:33:00,
2013-05-18 04:42:00,54.0,39.0,-100.00,ESE,117,3.0,5.0,56,0.00,,,0.00,0.000000,,2013-05-18 08:42:00,
2013-05-18 04:52:00,54.0,39.0,-100.00,ESE,117,3.0,5.0,56,0.00,,,0.00,0.000000,,2013-05-18 08:52:00,
2013-05-18 05:02:00,54.0,39.0,-100.00,ESE,117,3.0,5.0,56,0.00,,,0.00,0.000000,,2013-05-18 09:02:00,
2013-05-18 05:33:00,53.0,38.0,-100.00,SE,124,2.0,5.0,57,0.00,,,0.00,0.000000,,2013-05-18 09:33:00,
2013-05-18 05:43:00,53.0,38.0,-100.00,SE,124,2.0,5.0,57,0.00,,,0.00,0.000000,,2013-05-18 09:43:00,
2013-05-18 05:53:00,53.0,38.0,-100.00,SE,124,2.0,5.0,57,0.00,,,0.00,0.000000,,2013-05-18 09:53:00,
2013-05-18 06:03:00,53.0,38.0,-100.00,SE,124,2.0,5.0,57,0.00,,,0.00,0.000000,,2013-05-18 10:03:00,
2013-05-18 06:33:00,52.0,38.0,-100.00,SE,127,2.0,6.0,59,0.00,,,0.00,2.000000,,2013-05-18 10:33:00,
2013-05-18 06:42:00,52.0,38.0,-100.00,SE,127,2.0,6.0,59,0.00,,,0.00,2.000000,,2013-05-18 10:42:00,
2013-05-18 06:53:00,52.0,38.0,-100.00,SE,127,2.0,6.0,59,0.00,,,0.00,2.000000,,2013-05-18 10:53:00,
2013-05-18 07:03:00,52.0,38.0,-100.00,SE,127,2.0,6.0,59,0.00,,,0.00,2.000000,,2013-05-18 11:03:00,
2013-05-18 07:33:00,53.0,40.0,-100.00,ESE,111,2.0,4.0,61,0.00,,,0.00,21.000000,,2013-05-18 11:33:00,
2013-05-18 07:42:00,53.0,40.0,-100.00,ESE,111,2.0,4.0,61,0.00,,,0.00,21.000000,,2013-05-18 11:42:00,
2013-05-18 07:52:00,53.0,40.0,-100.00,ESE,111,2.0,4.0,61,0.00,,,0.00,21.000000,,2013-05-18 11:52:00,
2013-05-18 08:02:00,53.0,40.0,-100.00,ESE,111,2.0,4.0,61,0.00,,,0.00,21.000000,,2013-05-18 12:02:00,
2013-05-18 08:33:00,55.0,41.0,-100.00,East,101,3.0,8.0,60,0.00,,,0.00,73.000000,,2013-05-18 12:33:00,
2013-05-18 08:42:00,55.0,41.0,-100.00,East,101,3.0,8.0,60,0.00,,,0.00,73.000000,,2013-05-18 12:42:00,
2013-05-18 08:52:00,55.0,41.0,-100.00,East,101,3.0,8.0,60,0.00,,,0.00,73.000000,,2013-05-18 12:52:00,
2013-05-18 09:01:00,55.0,41.0,-100.00,East,101,3.0,8.0,60,0.00,,,0.00,73.000000,,2013-05-18 13:01:00,
2013-05-18 09:33:00,59.0,43.0,-100.00,SE,127,3.0,7.0,56,0.00,,,0.00,218.000000,,2013-05-18 13:33:00,
2013-05-18 09:43:00,59.0,43.0,-100.00,SE,127,3.0,7.0,56,0.00,,,0.00,218.000000,,2013-05-18 13:43:00,
2013-05-18 09:53:00,59.0,43.0,-100.00,SE,127,3.0,7.0,56,0.00,,,0.00,218.000000,,2013-05-18 13:53:00,
2013-05-18 10:04:00,59.0,43.0,-100.00,SE,127,3.0,7.0,56,0.00,,,0.00,218.000000,,2013-05-18 14:04:00,
2013-05-18 10:33:00,61.0,47.0,-100.00,SE,130,4.0,9.0,59,0.00,,,0.00,254.000000,,2013-05-18 14:33:00,
2013-05-18 10:42:00,61.0,47.0,-100.00,SE,130,4.0,9.0,59,0.00,,,0.00,254.000000,,2013-05-18 14:42:00,
2013-05-18 10:54:00,61.0,47.0,-100.00,SE,130,4.0,9.0,59,0.00,,,0.00,254.000000,,2013-05-18 14:54:00,
2013-05-18 11:03:00,61.0,47.0,-100.00,SE,130,4.0,9.0,59,0.00,,,0.00,254.000000,,2013-05-18 15:03:00,
2013-05-18 11:33:00,60.0,45.0,-100.00,SE,126,3.0,8.0,57,0.00,,,0.00,263.000000,,2013-05-18 15:33:00,
2013-05-18 11:43:00,60.0,45.0,-100.00,SE,126,3.0,8.0,57,0.00,,,0.00,263.000000,,2013-05-18 15:43:00,
2013-05-18 11:54:00,60.0,45.0,-100.00,SE,126,3.0,8.0,57,0.00,,,0.00,263.000000,,2013-05-18 15:54:00,
2013-05-18 12:03:00,60.0,45.0,-100.00,SE,126,3.0,8.0,57,0.00,,,0.00,263.000000,,2013-05-18 16:03:00,
2013-05-18 12:33:00,61.0,47.0,-100.00,SE,132,4.0,8.0,59,0.00,,,0.00,282.000000,,2013-05-18 16:33:00,
2013-05-18 12:42:00,61.0,47.0,-100.00,SE,132,4.0,8.0,59,0.00,,,0.00,282.000000,,2013-05-18 16:42:00,
2013-05-18 12:52:00,61.0,47.0,-100.00,SE,132,4.0,8.0,59,0.00,,,0.00,282.000000,,2013-05-18 16:52:00,
2013-05-18 13:03:00,61.0,47.0,-100.00,SE,132,4.0,8.0,59,0.00,,,0.00,282.000000,,2013-05-18 17:03:00,
2013-05-18 13:33:00,63.0,49.0,-100.00,SE,124,3.0,8.0,60,0.00,,,0.00,257.000000,,2013-05-18 17:33:00,
2013-05-18 13:42:00,63.0,49.0,-100.00,SE,124,3.0,8.0,60,0.00,,,0.00,257.000000,,2013-05-18 17:42:00,
2013-05-18 13:52:00,63.0,49.0,-100.00,SE,124,3.0,8.0,60,0.00,,,0.00,257.000000,,2013-05-18 17:52:00,
2013-05-18 14:01:00,63.0,49.0,-100.00,SE,124,3.0,8.0,60,0.00,,,0.00,257.000000,,2013-05-18 18:01:00,
2013-05-18 14:32:00,62.0,47.0,-100.00,ESE,120,4.0,9.0,59,0.00,,,0.00,230.000000,,2013-05-18 18:32:00,
2013-05-18 14:42:00,62.0,47.0,-100.00,ESE,120,4.0,9.0,59,0.00,,,0.00,230.000000,,2013-05-18 18:42:00,
2013-05-18 14:52:00,62.0,47.0,-100.00,ESE,120,4.0,9.0,59,0.00,,,0.00,230.000000,,2013-05-18 18:52:00,
2013-05-18 15:02:00,62.0,47.0,-100.00,ESE,120,4.0,9.0,59,0.00,,,0.00,230.000000,,2013-05-18 19:02:00,
2013-05-18 15:32:00,62.0,47.0,-100.00,ESE,114,3.0,9.0,58,0.00,,,0.00,201.000000,,2013-05-18 19:32:00,
2013-05-18 15:42:00,62.0,47.0,-100.00,ESE,114,3.0,9.0,58,0.00,,,0.00,201.000000,,2013-05-18 19:42:00,
2013-05-18 15:52:00,62.0,47.0,-100.00,ESE,114,3.0,9.0,58,0.00,,,0.00,201.000000,,2013-05-18 19:52:00,
2013-05-18 16:02:00,62.0,47.0,-100.00,ESE,114,3.0,9.0,58,0.00,,,0.00,201.000000,,2013-05-18 20:02:00,
2013-05-18 16:32:00,61.0,49.0,-100.00,SE,145,3.0,7.0,65,0.00,,,0.00,122.000000,,2013-05-18 20:32:00,
2013-05-18 16:42:00,61.0,49.0,-100.00,SE,145,3.0,7.0,65,0.00,,,0.00,122.000000,,2013-05-18 20:42:00,
2013-05-18 16:52:00,61.0,49.0,-100.00,SE,145,3.0,7.0,65,0.00,,,0.00,122.000000,,2013-05-18 20:52:00,
2013-05-18 17:01:00,61.0,49.0,-100.00,SE,145,3.0,7.0,65,0.00,,,0.00,122.000000,,2013-05-18 21:01:00,
2013-05-18 17:33:00,63.0,52.0,-100.00,ESE,117,4.0,10.0,68,0.00,,,0.00,184.000000,,2013-05-18 21:33:00,
2013-05-18 17:44:00,63.0,52.0,-100.00,ESE,117,4.0,10.0,68,0.00,,,0.00,184.000000,,2013-05-18 21:44:00,
2013-05-18 17:53:00,63.0,52.0,-100.00,ESE,117,4.0,10.0,68,0.00,,,0.00,184.000000,,2013-05-18 21:53:00,
2013-05-18 18:03:00,63.0,52.0,-100.00,ESE,117,4.0,10.0,68,0.00,,,0.00,184.000000,,2013-05-18 22:03:00,
2013-05-18 18:33:00,62.0,51.0,-100.00,ESE,119,3.0,7.0,67,0.00,,,0.00,88.000000,,2013-05-18 22:33:00,
2013-05-18 18:42:00,62.0,51.0,-100.00,ESE,119,3.0,7.0,67,0.00,,,0.00,88.000000,,2013-05-18 22:42:00,
2013-05-18 18:53:00,62.0,51.0,-100.00,ESE,119,3.0,7.0,67,0.00,,,0.00,88.000000,,2013-05-18 22:53:00,
2013-05-18 19:02:00,62.0,51.0,-100.00,ESE,119,3.0,7.0,67,0.00,,,0.00,88.000000,,2013-05-18 23:02:00,
2013-05-18 19:32:00,61.0,50.0,-100.00,SE,131,5.0,10.0,66,0.00,,,0.00,93.000000,,2013-05-18 23:32:00,
2013-05-18 19:42:00,61.0,50.0,-100.00,SE,131,5.0,10.0,66,0.00,,,0.00,93.000000,,2013-05-18 23:42:00,
2013-05-18 19:53:00,61.0,50.0,-100.00,SE,131,5.0,10.0,66,0.00,,,0.00,93.000000,,2013-05-18 23:53:00,
2013-05-18 20:02:00,61.0,50.0,-100.00,SE,131,5.0,10.0,66,0.00,,,0.00,93.000000,,2013-05-19 00:02:00,
2013-05-18 21:32:00,58.0,50.0,-100.00,ESE,121,4.0,13.0,75,-99.99,,,0.00,1.000000,,2013-05-19 01:32:00,
2013-05-18 21:42:00,58.0,50.0,-100.00,ESE,121,4.0,13.0,75,-99.99,,,0.00,1.000000,,2013-05-19 01:42:00,
2013-05-18 21:52:00,58.0,50.0,-100.00,ESE,121,4.0,13.0,75,-99.99,,,0.00,1.000000,,2013-05-19 01:52:00,
2013-05-18 22:02:00,58.0,50.0,-100.00,ESE,121,4.0,13.0,75,-99.99,,,0.00,1.000000,,2013-05-19 02:02:00,
2013-05-18 22:32:00,57.0,52.0,-100.00,SE,124,4.0,8.0,82,0.00,,,0.00,0.000000,,2013-05-19 02:32:00,
2013-05-18 22:42:00,57.0,52.0,-100.00,SE,124,4.0,8.0,82,0.00,,,0.00,0.000000,,2013-05-19 02:42:00,
2013-05-18 22:52:00,57.0,52.0,-100.00,SE,124,4.0,8.0,82,0.00,,,0.00,0.000000,,2013-05-19 02:52:00,
2013-05-18 23:01:00,57.0,52.0,-100.00,SE,124,4.0,8.0,82,0.00,,,0.00,0.000000,,2013-05-19 03:01:00,
2013-05-18 23:33:00,55.0,54.0,-100.00,ESE,110,3.0,12.0,98,0.00,,,0.00,0.000000,,2013-05-19 03:33:00,
2013-05-18 23:43:00,55.0,54.0,-100.00,ESE,110,3.0,12.0,98,0.00,,,0.00,0.000000,,2013-05-19 03:43:00,
2013-05-18 23:53:00,55.0,54.0,-100.00,ESE,110,3.0,12.0,98,0.00,,,0.00,0.000000,,2013-05-19 03:53:00,